Terminal Aerodrome Forecast
Issued by NWS

Home | Current Version | Previous Version | Text Only | Print | Product List | Glossary On
Versions: 1 2 3 4 5 6 7 8 9 10 11 12 13 14 15 16 17 18 19 20 21 22 23 24 25 26 27 28 29 30 31 32
000
FTUS42 TJSJ 172336
TAFJBQ
TAF
TJBQ 172336Z 1800/1824 07014KT P6SM VCSH SCT025 BKN050
     FM181400 08012KT P6SM SHRA FEW025
     FM181800 07012KT P6SM RA BKN030
     FM182100 09008KT P6SM BKN050
      AMD NOT SKED 1802/1811=

USA.gov is the U.S. government's official web portal to all federal, state and local government web resources and services.